sensor_id;sensor_type;location;lat;lon;timestamp;P1;durP1;ratioP1;P2;durP2;ratioP2
35847;SDS011;22332;51.954;20.118;2023-07-13T00:02:41;6.10;;;4.30;;
35847;SDS011;22332;51.954;20.118;2023-07-13T00:05:52;7.50;;;4.20;;
35847;SDS011;22332;51.954;20.118;2023-07-13T00:09:03;6.10;;;4.00;;
35847;SDS011;22332;51.954;20.118;2023-07-13T00:12:22;5.30;;;4.30;;
35847;SDS011;22332;51.954;20.118;2023-07-13T00:15:31;5.60;;;4.20;;
35847;SDS011;22332;51.954;20.118;2023-07-13T00:18:38;4.30;;;3.80;;
35847;SDS011;22332;51.954;20.118;2023-07-13T00:21:44;4.30;;;3.40;;
35847;SDS011;22332;51.954;20.118;2023-07-13T00:24:49;4.10;;;3.70;;
35847;SDS011;22332;51.954;20.118;2023-07-13T00:27:55;5.40;;;4.00;;
35847;SDS011;22332;51.954;20.118;2023-07-13T00:31:02;4.80;;;4.10;;
35847;SDS011;22332;51.954;20.118;2023-07-13T00:34:07;4.20;;;3.80;;
35847;SDS011;22332;51.954;20.118;2023-07-13T00:37:13;4.80;;;3.70;;
35847;SDS011;22332;51.954;20.118;2023-07-13T00:40:18;4.80;;;4.00;;
35847;SDS011;22332;51.954;20.118;2023-07-13T00:43:25;4.70;;;4.20;;
35847;SDS011;22332;51.954;20.118;2023-07-13T00:46:32;7.70;;;4.90;;
35847;SDS011;22332;51.954;20.118;2023-07-13T00:49:39;4.40;;;4.00;;
35847;SDS011;22332;51.954;20.118;2023-07-13T00:52:45;5.20;;;3.90;;
35847;SDS011;22332;51.954;20.118;2023-07-13T00:55:53;7.00;;;3.60;;
35847;SDS011;22332;51.954;20.118;2023-07-13T00:59:00;4.10;;;3.60;;
35847;SDS011;22332;51.954;20.118;2023-07-13T01:02:09;5.70;;;3.80;;
35847;SDS011;22332;51.954;20.118;2023-07-13T01:05:16;4.40;;;3.60;;
35847;SDS011;22332;51.954;20.118;2023-07-13T01:08:23;3.70;;;3.30;;
35847;SDS011;22332;51.954;20.118;2023-07-13T01:11:29;5.00;;;3.60;;
35847;SDS011;22332;51.954;20.118;2023-07-13T01:14:34;3.90;;;3.50;;
35847;SDS011;22332;51.954;20.118;2023-07-13T01:17:41;4.60;;;3.80;;
35847;SDS011;22332;51.954;20.118;2023-07-13T01:20:50;5.00;;;4.10;;
35847;SDS011;22332;51.954;20.118;2023-07-13T01:23:57;5.50;;;3.70;;
35847;SDS011;22332;51.954;20.118;2023-07-13T01:27:03;4.70;;;3.70;;
35847;SDS011;22332;51.954;20.118;2023-07-13T01:30:11;4.30;;;3.50;;
35847;SDS011;22332;51.954;20.118;2023-07-13T01:33:17;4.10;;;3.80;;
35847;SDS011;22332;51.954;20.118;2023-07-13T01:36:23;6.40;;;4.10;;
35847;SDS011;22332;51.954;20.118;2023-07-13T01:39:28;6.90;;;4.00;;
35847;SDS011;22332;51.954;20.118;2023-07-13T01:42:34;5.10;;;3.70;;
35847;SDS011;22332;51.954;20.118;2023-07-13T01:45:45;5.80;;;3.50;;
35847;SDS011;22332;51.954;20.118;2023-07-13T01:48:50;6.80;;;4.10;;
35847;SDS011;22332;51.954;20.118;2023-07-13T01:51:56;5.40;;;3.60;;
35847;SDS011;22332;51.954;20.118;2023-07-13T01:55:01;6.20;;;4.10;;
35847;SDS011;22332;51.954;20.118;2023-07-13T01:58:08;5.00;;;3.90;;
35847;SDS011;22332;51.954;20.118;2023-07-13T02:01:13;5.80;;;3.90;;
35847;SDS011;22332;51.954;20.118;2023-07-13T02:04:19;5.80;;;3.80;;
35847;SDS011;22332;51.954;20.118;2023-07-13T02:07:25;5.90;;;4.20;;
35847;SDS011;22332;51.954;20.118;2023-07-13T02:10:31;5.00;;;4.50;;
35847;SDS011;22332;51.954;20.118;2023-07-13T02:13:36;7.10;;;4.20;;
35847;SDS011;22332;51.954;20.118;2023-07-13T02:16:42;6.30;;;3.90;;
35847;SDS011;22332;51.954;20.118;2023-07-13T02:19:47;4.60;;;3.70;;
35847;SDS011;22332;51.954;20.118;2023-07-13T02:22:53;6.00;;;3.90;;
35847;SDS011;22332;51.954;20.118;2023-07-13T02:25:59;7.90;;;4.20;;
35847;SDS011;22332;51.954;20.118;2023-07-13T02:29:06;5.00;;;4.00;;
35847;SDS011;22332;51.954;20.118;2023-07-13T02:32:12;5.00;;;3.90;;
35847;SDS011;22332;51.954;20.118;2023-07-13T02:35:17;4.20;;;3.60;;
35847;SDS011;22332;51.954;20.118;2023-07-13T02:38:23;6.30;;;4.60;;
35847;SDS011;22332;51.954;20.118;2023-07-13T02:41:29;7.60;;;4.10;;
35847;SDS011;22332;51.954;20.118;2023-07-13T02:44:35;5.00;;;4.50;;
35847;SDS011;22332;51.954;20.118;2023-07-13T02:47:41;5.30;;;3.90;;
35847;SDS011;22332;51.954;20.118;2023-07-13T02:50:47;3.90;;;3.30;;
35847;SDS011;22332;51.954;20.118;2023-07-13T02:53:53;4.90;;;3.70;;
35847;SDS011;22332;51.954;20.118;2023-07-13T02:56:59;4.10;;;3.60;;
35847;SDS011;22332;51.954;20.118;2023-07-13T03:00:05;6.20;;;3.90;;
35847;SDS011;22332;51.954;20.118;2023-07-13T03:03:13;5.80;;;4.00;;
35847;SDS011;22332;51.954;20.118;2023-07-13T03:06:19;4.10;;;3.70;;
35847;SDS011;22332;51.954;20.118;2023-07-13T03:09:28;4.00;;;3.60;;
35847;SDS011;22332;51.954;20.118;2023-07-13T03:12:36;4.80;;;3.60;;
35847;SDS011;22332;51.954;20.118;2023-07-13T03:15:48;7.50;;;3.70;;
35847;SDS011;22332;51.954;20.118;2023-07-13T03:18:53;5.80;;;3.80;;
35847;SDS011;22332;51.954;20.118;2023-07-13T03:21:59;5.00;;;3.90;;
35847;SDS011;22332;51.954;20.118;2023-07-13T03:25:06;5.00;;;3.70;;
35847;SDS011;22332;51.954;20.118;2023-07-13T03:28:13;5.10;;;3.50;;
35847;SDS011;22332;51.954;20.118;2023-07-13T03:31:20;5.70;;;3.60;;
35847;SDS011;22332;51.954;20.118;2023-07-13T03:34:28;3.90;;;3.50;;
35847;SDS011;22332;51.954;20.118;2023-07-13T03:37:35;5.30;;;3.80;;
35847;SDS011;22332;51.954;20.118;2023-07-13T03:40:46;4.50;;;3.60;;
35847;SDS011;22332;51.954;20.118;2023-07-13T03:43:52;3.70;;;3.30;;
35847;SDS011;22332;51.954;20.118;2023-07-13T03:46:58;6.60;;;4.20;;
35847;SDS011;22332;51.954;20.118;2023-07-13T03:50:04;4.10;;;3.50;;
35847;SDS011;22332;51.954;20.118;2023-07-13T03:53:12;5.60;;;4.50;;
35847;SDS011;22332;51.954;20.118;2023-07-13T03:56:18;6.20;;;4.50;;
35847;SDS011;22332;51.954;20.118;2023-07-13T03:59:23;5.40;;;4.10;;
35847;SDS011;22332;51.954;20.118;2023-07-13T04:02:29;4.90;;;4.40;;
35847;SDS011;22332;51.954;20.118;2023-07-13T04:05:35;5.20;;;3.80;;
35847;SDS011;22332;51.954;20.118;2023-07-13T04:08:42;5.70;;;4.60;;
35847;SDS011;22332;51.954;20.118;2023-07-13T04:11:47;4.40;;;3.50;;
35847;SDS011;22332;51.954;20.118;2023-07-13T04:14:53;6.80;;;4.20;;
35847;SDS011;22332;51.954;20.118;2023-07-13T04:17:58;5.00;;;4.10;;
35847;SDS011;22332;51.954;20.118;2023-07-13T04:21:05;5.30;;;4.80;;
35847;SDS011;22332;51.954;20.118;2023-07-13T04:24:12;5.70;;;5.10;;
35847;SDS011;22332;51.954;20.118;2023-07-13T04:27:17;5.80;;;4.70;;
35847;SDS011;22332;51.954;20.118;2023-07-13T04:30:23;7.40;;;5.40;;
35847;SDS011;22332;51.954;20.118;2023-07-13T04:33:29;8.50;;;5.30;;
35847;SDS011;22332;51.954;20.118;2023-07-13T04:36:34;6.10;;;5.50;;
35847;SDS011;22332;51.954;20.118;2023-07-13T04:39:40;8.30;;;6.30;;
35847;SDS011;22332;51.954;20.118;2023-07-13T04:42:45;9.40;;;5.90;;
35847;SDS011;22332;51.954;20.118;2023-07-13T04:45:51;9.20;;;5.90;;
35847;SDS011;22332;51.954;20.118;2023-07-13T04:48:58;8.50;;;5.70;;
35847;SDS011;22332;51.954;20.118;2023-07-13T04:52:04;10.50;;;6.30;;
35847;SDS011;22332;51.954;20.118;2023-07-13T04:55:11;9.40;;;6.90;;
35847;SDS011;22332;51.954;20.118;2023-07-13T04:58:16;10.00;;;7.20;;
35847;SDS011;22332;51.954;20.118;2023-07-13T05:01:22;9.90;;;6.90;;
35847;SDS011;22332;51.954;20.118;2023-07-13T05:04:28;8.50;;;6.20;;
35847;SDS011;22332;51.954;20.118;2023-07-13T05:07:33;8.70;;;6.70;;
35847;SDS011;22332;51.954;20.118;2023-07-13T05:10:39;8.50;;;6.00;;
35847;SDS011;22332;51.954;20.118;2023-07-13T05:13:44;8.70;;;6.40;;
35847;SDS011;22332;51.954;20.118;2023-07-13T05:16:50;7.50;;;6.50;;
35847;SDS011;22332;51.954;20.118;2023-07-13T05:19:55;9.10;;;6.00;;
35847;SDS011;22332;51.954;20.118;2023-07-13T05:23:01;8.00;;;6.60;;
35847;SDS011;22332;51.954;20.118;2023-07-13T05:26:06;8.50;;;6.70;;
35847;SDS011;22332;51.954;20.118;2023-07-13T05:29:12;10.70;;;7.40;;
35847;SDS011;22332;51.954;20.118;2023-07-13T05:32:18;7.50;;;6.70;;
35847;SDS011;22332;51.954;20.118;2023-07-13T05:35:24;9.60;;;6.60;;
35847;SDS011;22332;51.954;20.118;2023-07-13T05:38:29;11.40;;;7.00;;
35847;SDS011;22332;51.954;20.118;2023-07-13T05:41:35;9.30;;;7.00;;
35847;SDS011;22332;51.954;20.118;2023-07-13T05:44:41;9.50;;;6.60;;
35847;SDS011;22332;51.954;20.118;2023-07-13T05:47:47;9.40;;;6.80;;
35847;SDS011;22332;51.954;20.118;2023-07-13T05:50:52;14.80;;;12.20;;
35847;SDS011;22332;51.954;20.118;2023-07-13T05:53:58;9.50;;;8.10;;
35847;SDS011;22332;51.954;20.118;2023-07-13T05:57:04;9.90;;;7.80;;
35847;SDS011;22332;51.954;20.118;2023-07-13T06:00:11;9.40;;;8.20;;
35847;SDS011;22332;51.954;20.118;2023-07-13T06:03:18;11.00;;;6.80;;
35847;SDS011;22332;51.954;20.118;2023-07-13T06:06:24;9.00;;;6.50;;
35847;SDS011;22332;51.954;20.118;2023-07-13T06:09:29;7.90;;;6.80;;
35847;SDS011;22332;51.954;20.118;2023-07-13T06:12:35;7.80;;;6.10;;
35847;SDS011;22332;51.954;20.118;2023-07-13T06:15:41;8.20;;;6.80;;
35847;SDS011;22332;51.954;20.118;2023-07-13T06:18:46;6.90;;;5.80;;
35847;SDS011;22332;51.954;20.118;2023-07-13T06:21:52;10.00;;;5.90;;
35847;SDS011;22332;51.954;20.118;2023-07-13T06:24:57;9.30;;;6.10;;
35847;SDS011;22332;51.954;20.118;2023-07-13T06:28:03;8.30;;;6.10;;
35847;SDS011;22332;51.954;20.118;2023-07-13T06:31:09;7.30;;;5.80;;
35847;SDS011;22332;51.954;20.118;2023-07-13T06:34:16;7.50;;;5.50;;
35847;SDS011;22332;51.954;20.118;2023-07-13T06:37:22;8.10;;;5.90;;
35847;SDS011;22332;51.954;20.118;2023-07-13T06:40:27;6.70;;;5.80;;
35847;SDS011;22332;51.954;20.118;2023-07-13T06:43:33;7.90;;;6.60;;
35847;SDS011;22332;51.954;20.118;2023-07-13T06:46:38;9.00;;;6.60;;
35847;SDS011;22332;51.954;20.118;2023-07-13T06:49:44;7.70;;;6.40;;
35847;SDS011;22332;51.954;20.118;2023-07-13T06:52:49;7.60;;;6.30;;
35847;SDS011;22332;51.954;20.118;2023-07-13T06:55:55;6.60;;;5.80;;
35847;SDS011;22332;51.954;20.118;2023-07-13T06:59:01;6.40;;;5.80;;
35847;SDS011;22332;51.954;20.118;2023-07-13T07:02:07;6.30;;;5.30;;
35847;SDS011;22332;51.954;20.118;2023-07-13T07:05:14;7.60;;;5.70;;
35847;SDS011;22332;51.954;20.118;2023-07-13T07:08:20;7.10;;;5.90;;
35847;SDS011;22332;51.954;20.118;2023-07-13T07:11:25;6.60;;;5.80;;
35847;SDS011;22332;51.954;20.118;2023-07-13T07:14:31;7.10;;;5.60;;
35847;SDS011;22332;51.954;20.118;2023-07-13T07:17:37;7.30;;;5.30;;
35847;SDS011;22332;51.954;20.118;2023-07-13T07:20:43;7.20;;;5.60;;
35847;SDS011;22332;51.954;20.118;2023-07-13T07:23:48;7.40;;;4.90;;
35847;SDS011;22332;51.954;20.118;2023-07-13T07:26:55;6.10;;;4.50;;
35847;SDS011;22332;51.954;20.118;2023-07-13T07:30:01;7.00;;;5.50;;
35847;SDS011;22332;51.954;20.118;2023-07-13T07:33:07;6.50;;;5.20;;
35847;SDS011;22332;51.954;20.118;2023-07-13T07:36:12;6.20;;;5.10;;
35847;SDS011;22332;51.954;20.118;2023-07-13T07:39:18;6.70;;;5.50;;
35847;SDS011;22332;51.954;20.118;2023-07-13T07:42:24;7.70;;;5.70;;
35847;SDS011;22332;51.954;20.118;2023-07-13T07:45:30;7.30;;;5.30;;
35847;SDS011;22332;51.954;20.118;2023-07-13T07:48:35;6.40;;;5.30;;
35847;SDS011;22332;51.954;20.118;2023-07-13T07:51:41;6.10;;;5.20;;
35847;SDS011;22332;51.954;20.118;2023-07-13T07:54:47;5.90;;;5.10;;
35847;SDS011;22332;51.954;20.118;2023-07-13T07:57:52;5.90;;;5.00;;
35847;SDS011;22332;51.954;20.118;2023-07-13T08:01:03;8.20;;;5.20;;
35847;SDS011;22332;51.954;20.118;2023-07-13T08:04:10;6.10;;;5.50;;
35847;SDS011;22332;51.954;20.118;2023-07-13T08:07:19;7.10;;;5.60;;
35847;SDS011;22332;51.954;20.118;2023-07-13T08:10:24;6.90;;;5.60;;
35847;SDS011;22332;51.954;20.118;2023-07-13T08:13:30;6.00;;;5.40;;
35847;SDS011;22332;51.954;20.118;2023-07-13T08:16:36;6.40;;;5.30;;
35847;SDS011;22332;51.954;20.118;2023-07-13T08:19:42;7.70;;;5.10;;
35847;SDS011;22332;51.954;20.118;2023-07-13T08:22:47;5.80;;;5.30;;
35847;SDS011;22332;51.954;20.118;2023-07-13T08:25:53;6.70;;;5.70;;
35847;SDS011;22332;51.954;20.118;2023-07-13T08:28:59;7.20;;;5.40;;
35847;SDS011;22332;51.954;20.118;2023-07-13T08:32:07;7.60;;;5.10;;
35847;SDS011;22332;51.954;20.118;2023-07-13T08:35:13;6.40;;;5.70;;
35847;SDS011;22332;51.954;20.118;2023-07-13T08:38:19;5.90;;;5.30;;
35847;SDS011;22332;51.954;20.118;2023-07-13T08:41:25;9.10;;;5.50;;
35847;SDS011;22332;51.954;20.118;2023-07-13T08:44:37;6.20;;;5.30;;
35847;SDS011;22332;51.954;20.118;2023-07-13T08:47:54;6.50;;;5.80;;
35847;SDS011;22332;51.954;20.118;2023-07-13T08:51:08;8.40;;;5.30;;
35847;SDS011;22332;51.954;20.118;2023-07-13T08:54:23;7.50;;;5.90;;
35847;SDS011;22332;51.954;20.118;2023-07-13T08:57:32;8.30;;;7.10;;
35847;SDS011;22332;51.954;20.118;2023-07-13T09:00:40;8.80;;;7.60;;
35847;SDS011;22332;51.954;20.118;2023-07-13T09:03:53;9.40;;;7.70;;
35847;SDS011;22332;51.954;20.118;2023-07-13T09:07:07;7.60;;;6.90;;
35847;SDS011;22332;51.954;20.118;2023-07-13T09:10:23;9.40;;;7.50;;
35847;SDS011;22332;51.954;20.118;2023-07-13T09:16:41;8.90;;;6.70;;
35847;SDS011;22332;51.954;20.118;2023-07-13T09:19:48;8.30;;;6.80;;
35847;SDS011;22332;51.954;20.118;2023-07-13T09:23:01;7.40;;;6.70;;
35847;SDS011;22332;51.954;20.118;2023-07-13T09:26:15;7.50;;;6.70;;
35847;SDS011;22332;51.954;20.118;2023-07-13T09:29:26;7.80;;;6.30;;
35847;SDS011;22332;51.954;20.118;2023-07-13T09:32:35;8.40;;;6.00;;
35847;SDS011;22332;51.954;20.118;2023-07-13T09:35:43;8.00;;;6.20;;
35847;SDS011;22332;51.954;20.118;2023-07-13T09:38:58;6.80;;;6.00;;
35847;SDS011;22332;51.954;20.118;2023-07-13T09:42:12;7.20;;;6.50;;
35847;SDS011;22332;51.954;20.118;2023-07-13T09:45:27;6.80;;;6.10;;
35847;SDS011;22332;51.954;20.118;2023-07-13T09:48:40;7.10;;;6.10;;
35847;SDS011;22332;51.954;20.118;2023-07-13T09:51:47;11.10;;;6.50;;
35847;SDS011;22332;51.954;20.118;2023-07-13T09:55:00;8.00;;;7.30;;
35847;SDS011;22332;51.954;20.118;2023-07-13T09:58:08;8.10;;;7.30;;
35847;SDS011;22332;51.954;20.118;2023-07-13T10:01:17;8.50;;;7.50;;
35847;SDS011;22332;51.954;20.118;2023-07-13T10:04:37;15.40;;;11.50;;
35847;SDS011;22332;51.954;20.118;2023-07-13T10:07:44;13.40;;;11.50;;
35847;SDS011;22332;51.954;20.118;2023-07-13T10:10:53;14.00;;;12.20;;
35847;SDS011;22332;51.954;20.118;2023-07-13T10:14:03;16.40;;;11.30;;
35847;SDS011;22332;51.954;20.118;2023-07-13T10:17:16;13.40;;;11.10;;
35847;SDS011;22332;51.954;20.118;2023-07-13T10:20:26;10.90;;;9.60;;
35847;SDS011;22332;51.954;20.118;2023-07-13T10:23:32;11.40;;;9.60;;
35847;SDS011;22332;51.954;20.118;2023-07-13T10:26:39;12.30;;;11.10;;
35847;SDS011;22332;51.954;20.118;2023-07-13T10:32:58;15.70;;;14.10;;
35847;SDS011;22332;51.954;20.118;2023-07-13T10:39:32;16.90;;;15.30;;
35847;SDS011;22332;51.954;20.118;2023-07-13T10:42:40;19.30;;;16.70;;
35847;SDS011;22332;51.954;20.118;2023-07-13T10:45:48;18.70;;;16.90;;
35847;SDS011;22332;51.954;20.118;2023-07-13T10:48:58;16.70;;;15.10;;
35847;SDS011;22332;51.954;20.118;2023-07-13T10:52:20;19.30;;;17.00;;
35847;SDS011;22332;51.954;20.118;2023-07-13T10:55:54;18.40;;;16.70;;
35847;SDS011;22332;51.954;20.118;2023-07-13T10:59:06;19.20;;;17.30;;
35847;SDS011;22332;51.954;20.118;2023-07-13T11:02:23;22.40;;;16.90;;
35847;SDS011;22332;51.954;20.118;2023-07-13T11:05:32;18.30;;;16.30;;
35847;SDS011;22332;51.954;20.118;2023-07-13T11:08:38;17.30;;;15.70;;
35847;SDS011;22332;51.954;20.118;2023-07-13T11:11:59;16.60;;;14.80;;
35847;SDS011;22332;51.954;20.118;2023-07-13T11:15:06;16.50;;;14.90;;
35847;SDS011;22332;51.954;20.118;2023-07-13T11:18:23;16.10;;;14.40;;
35847;SDS011;22332;51.954;20.118;2023-07-13T11:21:28;15.40;;;13.80;;
35847;SDS011;22332;51.954;20.118;2023-07-13T11:28:06;15.00;;;13.20;;
35847;SDS011;22332;51.954;20.118;2023-07-13T11:31:25;15.10;;;11.70;;
35847;SDS011;22332;51.954;20.118;2023-07-13T11:34:38;13.60;;;12.30;;
35847;SDS011;22332;51.954;20.118;2023-07-13T11:37:45;13.40;;;12.10;;
35847;SDS011;22332;51.954;20.118;2023-07-13T11:40:53;13.60;;;12.30;;
35847;SDS011;22332;51.954;20.118;2023-07-13T11:44:10;12.80;;;11.50;;
35847;SDS011;22332;51.954;20.118;2023-07-13T11:47:18;12.30;;;11.00;;
35847;SDS011;22332;51.954;20.118;2023-07-13T11:50:25;12.90;;;11.60;;
35847;SDS011;22332;51.954;20.118;2023-07-13T11:53:38;11.80;;;10.60;;
35847;SDS011;22332;51.954;20.118;2023-07-13T11:56:49;12.60;;;11.40;;
35847;SDS011;22332;51.954;20.118;2023-07-13T11:59:55;11.50;;;10.40;;
35847;SDS011;22332;51.954;20.118;2023-07-13T12:03:02;11.30;;;10.20;;
35847;SDS011;22332;51.954;20.118;2023-07-13T12:06:19;11.10;;;10.10;;
35847;SDS011;22332;51.954;20.118;2023-07-13T12:09:29;10.80;;;9.80;;
35847;SDS011;22332;51.954;20.118;2023-07-13T12:12:34;10.90;;;10.00;;
35847;SDS011;22332;51.954;20.118;2023-07-13T12:15:41;10.10;;;9.20;;
35847;SDS011;22332;51.954;20.118;2023-07-13T12:18:51;11.60;;;10.40;;
35847;SDS011;22332;51.954;20.118;2023-07-13T12:21:58;11.60;;;10.40;;
35847;SDS011;22332;51.954;20.118;2023-07-13T12:25:04;12.50;;;11.10;;
35847;SDS011;22332;51.954;20.118;2023-07-13T12:28:21;12.60;;;11.40;;
35847;SDS011;22332;51.954;20.118;2023-07-13T12:31:40;12.90;;;11.60;;
35847;SDS011;22332;51.954;20.118;2023-07-13T12:34:53;12.40;;;11.10;;
35847;SDS011;22332;51.954;20.118;2023-07-13T12:38:11;12.60;;;11.30;;
35847;SDS011;22332;51.954;20.118;2023-07-13T12:41:17;12.20;;;11.00;;
35847;SDS011;22332;51.954;20.118;2023-07-13T12:44:24;12.10;;;10.90;;
35847;SDS011;22332;51.954;20.118;2023-07-13T12:47:40;11.60;;;10.50;;
35847;SDS011;22332;51.954;20.118;2023-07-13T12:50:48;11.70;;;10.60;;
35847;SDS011;22332;51.954;20.118;2023-07-13T12:53:56;12.50;;;11.30;;
35847;SDS011;22332;51.954;20.118;2023-07-13T12:57:12;12.20;;;10.90;;
35847;SDS011;22332;51.954;20.118;2023-07-13T13:00:23;12.40;;;11.20;;
35847;SDS011;22332;51.954;20.118;2023-07-13T13:03:32;13.50;;;12.10;;
35847;SDS011;22332;51.954;20.118;2023-07-13T13:06:39;13.20;;;12.00;;
35847;SDS011;22332;51.954;20.118;2023-07-13T13:09:46;13.90;;;10.70;;
35847;SDS011;22332;51.954;20.118;2023-07-13T13:12:51;6.90;;;6.20;;
35847;SDS011;22332;51.954;20.118;2023-07-13T13:16:00;6.40;;;4.60;;
35847;SDS011;22332;51.954;20.118;2023-07-13T13:19:12;4.80;;;4.40;;
35847;SDS011;22332;51.954;20.118;2023-07-13T13:22:19;5.50;;;4.70;;
35847;SDS011;22332;51.954;20.118;2023-07-13T13:25:25;5.70;;;4.10;;
35847;SDS011;22332;51.954;20.118;2023-07-13T13:28:32;5.00;;;4.10;;
35847;SDS011;22332;51.954;20.118;2023-07-13T13:31:37;4.90;;;4.30;;
35847;SDS011;22332;51.954;20.118;2023-07-13T13:34:43;4.80;;;4.30;;
35847;SDS011;22332;51.954;20.118;2023-07-13T13:37:49;4.70;;;4.30;;
35847;SDS011;22332;51.954;20.118;2023-07-13T13:40:54;5.20;;;4.10;;
35847;SDS011;22332;51.954;20.118;2023-07-13T13:44:00;4.70;;;4.30;;
35847;SDS011;22332;51.954;20.118;2023-07-13T13:47:09;5.60;;;4.40;;
35847;SDS011;22332;51.954;20.118;2023-07-13T13:50:28;5.90;;;5.30;;
35847;SDS011;22332;51.954;20.118;2023-07-13T13:53:36;5.60;;;5.10;;
35847;SDS011;22332;51.954;20.118;2023-07-13T13:56:43;8.50;;;5.50;;
35847;SDS011;22332;51.954;20.118;2023-07-13T13:59:50;5.90;;;5.30;;
35847;SDS011;22332;51.954;20.118;2023-07-13T14:02:56;6.40;;;5.80;;
35847;SDS011;22332;51.954;20.118;2023-07-13T14:06:02;7.70;;;5.90;;
35847;SDS011;22332;51.954;20.118;2023-07-13T14:09:08;8.40;;;5.80;;
35847;SDS011;22332;51.954;20.118;2023-07-13T14:12:17;6.80;;;5.50;;
35847;SDS011;22332;51.954;20.118;2023-07-13T14:15:24;4.70;;;4.30;;
35847;SDS011;22332;51.954;20.118;2023-07-13T14:18:31;4.80;;;4.30;;
35847;SDS011;22332;51.954;20.118;2023-07-13T14:21:36;4.30;;;3.90;;
35847;SDS011;22332;51.954;20.118;2023-07-13T14:24:42;5.00;;;4.10;;
35847;SDS011;22332;51.954;20.118;2023-07-13T14:27:48;4.20;;;3.80;;
35847;SDS011;22332;51.954;20.118;2023-07-13T14:30:58;4.40;;;3.60;;
35847;SDS011;22332;51.954;20.118;2023-07-13T14:34:04;4.70;;;4.30;;
35847;SDS011;22332;51.954;20.118;2023-07-13T14:37:13;5.50;;;4.00;;
35847;SDS011;22332;51.954;20.118;2023-07-13T14:40:22;5.00;;;4.20;;
35847;SDS011;22332;51.954;20.118;2023-07-13T14:43:32;4.50;;;4.10;;
35847;SDS011;22332;51.954;20.118;2023-07-13T14:46:38;4.70;;;4.10;;
35847;SDS011;22332;51.954;20.118;2023-07-13T14:49:45;5.00;;;4.10;;
35847;SDS011;22332;51.954;20.118;2023-07-13T14:52:51;5.20;;;4.00;;
35847;SDS011;22332;51.954;20.118;2023-07-13T14:55:56;4.60;;;4.10;;
35847;SDS011;22332;51.954;20.118;2023-07-13T14:59:01;5.70;;;4.40;;
35847;SDS011;22332;51.954;20.118;2023-07-13T15:02:14;6.60;;;4.20;;
35847;SDS011;22332;51.954;20.118;2023-07-13T15:05:22;4.50;;;3.50;;
35847;SDS011;22332;51.954;20.118;2023-07-13T15:08:29;5.20;;;3.90;;
35847;SDS011;22332;51.954;20.118;2023-07-13T15:11:35;5.80;;;4.00;;
35847;SDS011;22332;51.954;20.118;2023-07-13T15:14:40;6.30;;;4.20;;
35847;SDS011;22332;51.954;20.118;2023-07-13T15:17:46;5.60;;;4.40;;
35847;SDS011;22332;51.954;20.118;2023-07-13T15:20:52;4.80;;;4.30;;
35847;SDS011;22332;51.954;20.118;2023-07-13T15:24:01;5.10;;;4.40;;
35847;SDS011;22332;51.954;20.118;2023-07-13T15:27:09;5.30;;;4.50;;
35847;SDS011;22332;51.954;20.118;2023-07-13T15:30:16;5.50;;;5.00;;
35847;SDS011;22332;51.954;20.118;2023-07-13T15:33:23;6.20;;;4.40;;
35847;SDS011;22332;51.954;20.118;2023-07-13T15:36:30;5.10;;;4.30;;
35847;SDS011;22332;51.954;20.118;2023-07-13T15:39:36;4.50;;;4.10;;
35847;SDS011;22332;51.954;20.118;2023-07-13T15:42:43;5.60;;;4.30;;
35847;SDS011;22332;51.954;20.118;2023-07-13T15:48:57;5.30;;;4.80;;
35847;SDS011;22332;51.954;20.118;2023-07-13T15:52:03;5.90;;;4.90;;
35847;SDS011;22332;51.954;20.118;2023-07-13T15:55:15;6.00;;;5.40;;
35847;SDS011;22332;51.954;20.118;2023-07-13T15:58:21;5.80;;;5.30;;
35847;SDS011;22332;51.954;20.118;2023-07-13T16:01:30;5.70;;;4.80;;
35847;SDS011;22332;51.954;20.118;2023-07-13T16:04:37;5.60;;;5.10;;
35847;SDS011;22332;51.954;20.118;2023-07-13T16:07:45;6.50;;;4.70;;
35847;SDS011;22332;51.954;20.118;2023-07-13T16:10:52;4.70;;;4.20;;
35847;SDS011;22332;51.954;20.118;2023-07-13T16:13:59;5.40;;;4.50;;
35847;SDS011;22332;51.954;20.118;2023-07-13T16:17:05;4.80;;;4.40;;
35847;SDS011;22332;51.954;20.118;2023-07-13T16:20:13;4.60;;;4.20;;
35847;SDS011;22332;51.954;20.118;2023-07-13T16:23:19;5.20;;;4.50;;
35847;SDS011;22332;51.954;20.118;2023-07-13T16:26:28;5.10;;;4.10;;
35847;SDS011;22332;51.954;20.118;2023-07-13T16:29:41;4.90;;;4.40;;
35847;SDS011;22332;51.954;20.118;2023-07-13T16:32:47;5.20;;;4.70;;
35847;SDS011;22332;51.954;20.118;2023-07-13T16:35:55;4.80;;;4.30;;
35847;SDS011;22332;51.954;20.118;2023-07-13T16:39:04;4.90;;;4.20;;
35847;SDS011;22332;51.954;20.118;2023-07-13T16:42:15;5.90;;;4.70;;
35847;SDS011;22332;51.954;20.118;2023-07-13T16:45:21;4.80;;;4.30;;
35847;SDS011;22332;51.954;20.118;2023-07-13T16:48:28;4.50;;;4.10;;
35847;SDS011;22332;51.954;20.118;2023-07-13T16:51:34;5.10;;;4.30;;
35847;SDS011;22332;51.954;20.118;2023-07-13T16:54:40;4.80;;;4.30;;
35847;SDS011;22332;51.954;20.118;2023-07-13T16:57:48;6.10;;;4.50;;
35847;SDS011;22332;51.954;20.118;2023-07-13T17:00:54;5.50;;;4.50;;
35847;SDS011;22332;51.954;20.118;2023-07-13T17:04:00;4.70;;;4.30;;
35847;SDS011;22332;51.954;20.118;2023-07-13T17:07:12;6.30;;;4.80;;
35847;SDS011;22332;51.954;20.118;2023-07-13T17:10:21;5.10;;;4.60;;
35847;SDS011;22332;51.954;20.118;2023-07-13T17:13:27;5.30;;;4.80;;
35847;SDS011;22332;51.954;20.118;2023-07-13T17:16:33;5.80;;;5.30;;
35847;SDS011;22332;51.954;20.118;2023-07-13T17:19:39;4.90;;;4.40;;
35847;SDS011;22332;51.954;20.118;2023-07-13T17:22:45;5.00;;;4.50;;
35847;SDS011;22332;51.954;20.118;2023-07-13T17:25:51;5.30;;;4.80;;
35847;SDS011;22332;51.954;20.118;2023-07-13T17:28:56;5.80;;;5.10;;
35847;SDS011;22332;51.954;20.118;2023-07-13T17:32:02;6.40;;;5.10;;
35847;SDS011;22332;51.954;20.118;2023-07-13T17:35:15;6.60;;;5.80;;
35847;SDS011;22332;51.954;20.118;2023-07-13T17:38:30;5.80;;;5.30;;
35847;SDS011;22332;51.954;20.118;2023-07-13T17:41:42;6.10;;;5.50;;
35847;SDS011;22332;51.954;20.118;2023-07-13T17:44:48;6.30;;;4.90;;
35847;SDS011;22332;51.954;20.118;2023-07-13T17:47:54;6.40;;;5.80;;
35847;SDS011;22332;51.954;20.118;2023-07-13T17:51:02;5.60;;;4.90;;
35847;SDS011;22332;51.954;20.118;2023-07-13T17:54:11;6.10;;;5.50;;
35847;SDS011;22332;51.954;20.118;2023-07-13T17:57:18;6.20;;;5.00;;
35847;SDS011;22332;51.954;20.118;2023-07-13T18:00:24;5.70;;;5.20;;
35847;SDS011;22332;51.954;20.118;2023-07-13T18:03:35;6.10;;;5.50;;
35847;SDS011;22332;51.954;20.118;2023-07-13T18:06:47;6.10;;;5.50;;
35847;SDS011;22332;51.954;20.118;2023-07-13T18:13:02;5.80;;;5.20;;
35847;SDS011;22332;51.954;20.118;2023-07-13T18:16:12;6.10;;;5.50;;
35847;SDS011;22332;51.954;20.118;2023-07-13T18:19:28;6.50;;;5.90;;
35847;SDS011;22332;51.954;20.118;2023-07-13T18:22:36;6.60;;;5.70;;
35847;SDS011;22332;51.954;20.118;2023-07-13T18:25:42;6.30;;;5.70;;
35847;SDS011;22332;51.954;20.118;2023-07-13T18:28:50;7.60;;;5.30;;
35847;SDS011;22332;51.954;20.118;2023-07-13T18:31:56;6.20;;;5.60;;
35847;SDS011;22332;51.954;20.118;2023-07-13T18:35:08;5.50;;;5.00;;
35847;SDS011;22332;51.954;20.118;2023-07-13T18:38:19;6.30;;;5.70;;
35847;SDS011;22332;51.954;20.118;2023-07-13T18:41:26;8.90;;;6.70;;
35847;SDS011;22332;51.954;20.118;2023-07-13T18:44:33;7.40;;;6.70;;
35847;SDS011;22332;51.954;20.118;2023-07-13T18:47:39;7.30;;;6.60;;
35847;SDS011;22332;51.954;20.118;2023-07-13T18:50:46;8.00;;;7.30;;